Time;durP1;ratioP1;P1;durP2;ratioP2;P2;SDS_P1;SDS_P2;PMS_P1;PMS_P2;Temp;Humidity;BMP_temperature;BMP_pressure;BME280_temperature;BME280_humidity;BME280_pressure;Samples;Min_cycle;Max_cycle;Signal;HPM_P1;HPM_P2
2022/02/24 00:01:49;;;;;;;21.73;11.60;;;;;;;5.29;100.00;100904.44;20976812;28;20102;-77
2022/02/24 00:11:51;;;;;;;20.65;10.65;;;;;;;5.29;100.00;100901.84;20983513;28;20132;-78
2022/02/24 00:21:53;;;;;;;18.10;10.02;;;;;;;5.33;100.00;100903.63;20995989;28;20048;-78
2022/02/24 00:31:54;;;;;;;17.30;9.25;;;;;;;5.43;100.00;100889.03;20977865;28;20078;-78
2022/02/24 00:41:56;;;;;;;15.40;8.82;;;;;;;5.38;100.00;100890.69;20978449;28;20080;-78
2022/02/24 00:51:58;;;;;;;16.15;9.43;;;;;;;5.36;100.00;100888.06;20976922;28;20057;-78
2022/02/24 01:01:59;;;;;;;19.95;10.77;;;;;;;5.21;100.00;100869.69;20970449;28;20184;-77
2022/02/24 01:12:01;;;;;;;17.60;10.13;;;;;;;5.15;100.00;100860.09;20977687;28;20049;-78
2022/02/24 01:22:03;;;;;;;21.80;10.98;;;;;;;5.20;100.00;100839.41;20997310;28;20094;-77
2022/02/24 01:32:05;;;;;;;15.95;8.38;;;;;;;5.30;100.00;100830.88;20988435;28;20041;-78
2022/02/24 01:42:07;;;;;;;15.50;9.05;;;;;;;5.33;100.00;100830.91;20974504;28;20045;-77
2022/02/24 01:52:11;;;;;;;18.52;9.48;;;;;;;5.46;100.00;100805.09;20971546;28;20102;-78
2022/02/24 02:02:14;;;;;;;17.87;8.67;;;;;;;5.51;100.00;100793.03;20969411;28;20045;-78
2022/02/24 02:12:19;;;;;;;15.75;8.25;;;;;;;5.51;100.00;100780.03;20972036;28;20132;-79
2022/02/24 02:22:21;;;;;;;18.33;8.98;;;;;;;5.54;100.00;100761.91;20986723;28;20113;-78
2022/02/24 02:32:26;;;;;;;15.05;8.45;;;;;;;5.59;100.00;100748.09;20984119;28;20393;-79
2022/02/24 02:42:27;;;;;;;15.45;8.40;;;;;;;5.63;100.00;100743.81;20971242;28;20045;-78
2022/02/24 02:52:29;;;;;;;16.55;8.15;;;;;;;5.69;100.00;100725.69;20985095;28;20044;-78
2022/02/24 03:02:30;;;;;;;14.02;8.82;;;;;;;5.73;100.00;100713.59;20982678;28;20045;-78
2022/02/24 03:12:35;;;;;;;14.75;9.32;;;;;;;5.74;100.00;100695.41;21003517;28;20090;-79
2022/02/24 03:22:36;;;;;;;17.27;9.60;;;;;;;5.77;100.00;100677.25;21021410;28;20060;-78
2022/02/24 03:32:39;;;;;;;14.70;8.95;;;;;;;5.71;100.00;100672.03;21004022;28;20114;-79
2022/02/24 03:42:41;;;;;;;17.80;9.07;;;;;;;5.68;100.00;100661.59;21003420;28;20051;-77
2022/02/24 03:52:43;;;;;;;16.10;9.15;;;;;;;5.65;100.00;100664.16;20999597;28;20125;-78
2022/02/24 04:02:44;;;;;;;19.05;8.48;;;;;;;5.69;100.00;100646.88;20978848;28;20048;-79
2022/02/24 04:12:47;;;;;;;16.77;8.98;;;;;;;5.69;100.00;100629.56;20996656;28;20041;-78
2022/02/24 04:22:48;;;;;;;15.23;8.55;;;;;;;5.77;100.00;100625.31;20977464;28;20086;-78
2022/02/24 04:32:50;;;;;;;13.98;8.40;;;;;;;5.78;100.00;100611.44;20992020;28;20110;-78
2022/02/24 04:42:52;;;;;;;20.92;8.85;;;;;;;5.77;100.00;100588.94;20992727;28;20054;-79
2022/02/24 04:52:53;;;;;;;14.25;8.70;;;;;;;5.80;100.00;100578.56;20974200;28;20060;-79
2022/02/24 05:02:55;;;;;;;13.93;8.02;;;;;;;5.81;100.00;100564.72;20990470;28;20135;-79
2022/02/24 05:12:57;;;;;;;17.17;8.32;;;;;;;5.83;100.00;100552.56;20985899;28;20054;-78
2022/02/24 05:22:58;;;;;;;17.20;8.52;;;;;;;5.87;100.00;100546.53;20990925;28;20047;-77
2022/02/24 05:33:00;;;;;;;12.48;7.38;;;;;;;5.82;100.00;100524.88;20988826;28;20424;-77
2022/02/24 05:43:02;;;;;;;14.45;7.95;;;;;;;5.56;100.00;100527.31;20991404;28;20135;-78
2022/02/24 05:53:03;;;;;;;12.38;7.05;;;;;;;5.36;100.00;100528.88;20994472;28;20051;-79
2022/02/24 06:03:05;;;;;;;15.45;7.90;;;;;;;5.35;100.00;100520.22;20976587;28;20112;-79
2022/02/24 06:13:06;;;;;;;17.17;8.52;;;;;;;5.36;100.00;100514.16;20994373;28;20064;-79
2022/02/24 06:23:08;;;;;;;14.23;7.95;;;;;;;5.29;100.00;100495.97;21015018;28;20523;-79
2022/02/24 06:33:09;;;;;;;15.77;7.97;;;;;;;5.12;100.00;100482.84;21002813;28;20052;-79
2022/02/24 06:43:11;;;;;;;17.38;8.73;;;;;;;5.11;100.00;100475.91;21005033;28;20076;-79
2022/02/24 06:53:13;;;;;;;19.75;10.02;;;;;;;5.18;100.00;100471.66;21006591;28;20045;-80
2022/02/24 07:03:14;;;;;;;14.02;8.60;;;;;;;5.29;100.00;100475.19;21020032;28;20629;-79
2022/02/24 07:13:16;;;;;;;12.73;7.05;;;;;;;5.40;100.00;100461.41;21010062;28;20045;-79
2022/02/24 07:23:20;;;;;;;11.48;6.32;;;;;;;5.57;100.00;100458.06;21004365;28;20049;-79
2022/02/24 07:33:21;;;;;;;13.73;7.25;;;;;;;5.77;100.00;100455.56;20978985;28;20098;-78
2022/02/24 07:43:23;;;;;;;13.40;6.82;;;;;;;5.96;100.00;100443.53;20965541;28;20479;-79
2022/02/24 07:53:28;;;;;;;16.58;5.82;;;;;;;6.11;100.00;100444.47;21006968;28;20049;-80
2022/02/24 08:03:29;;;;;;;10.35;6.10;;;;;;;6.47;100.00;100434.13;20956844;28;20176;-78
2022/02/24 08:13:31;;;;;;;9.82;5.68;;;;;;;6.73;100.00;100414.22;20891936;28;20127;-78
2022/02/24 08:23:33;;;;;;;13.95;6.88;;;;;;;7.03;99.33;100407.25;20916511;28;20091;-78
2022/02/24 08:33:34;;;;;;;10.10;5.68;;;;;;;7.53;93.81;100382.84;20901681;28;20052;-78
2022/02/24 08:43:36;;;;;;;11.80;5.30;;;;;;;7.78;91.25;100387.06;20948780;28;20135;-77
2022/02/24 08:53:37;;;;;;;10.32;5.38;;;;;;;8.20;88.02;100367.72;21008681;28;20056;-81
2022/02/24 09:03:39;;;;;;;8.60;4.63;;;;;;;8.32;87.21;100356.31;20988091;28;20049;-81
2022/02/24 09:13:44;;;;;;;10.20;4.53;;;;;;;8.84;83.61;100350.72;20979977;28;20072;-82
2022/02/24 09:23:46;;;;;;;8.13;3.97;;;;;;;9.40;79.91;100336.19;20994846;28;20083;-82
2022/02/24 09:33:48;;;;;;;8.63;4.10;;;;;;;9.75;79.55;100327.88;20974604;28;20048;-81
2022/02/24 09:43:50;;;;;;;9.07;3.60;;;;;;;10.24;75.73;100294.94;20846934;28;20123;-81
2022/02/24 09:53:52;;;;;;;6.07;2.63;;;;;;;10.56;74.33;100277.84;20972691;28;20140;-81
2022/02/24 10:04:00;;;;;;;9.20;2.60;;;;;;;10.65;70.64;100265.44;20971786;28;20501;-81
2022/02/24 10:14:10;;;;;;;6.40;2.03;;;;;;;10.88;67.95;100254.56;20969385;28;20074;-81
2022/02/24 10:24:24;;;;;;;6.05;2.20;;;;;;;11.18;66.75;100254.84;20990373;28;20118;-82
2022/02/24 10:34:26;;;;;;;4.43;1.80;;;;;;;11.57;65.29;100238.25;20953289;28;20053;-78
2022/02/24 10:44:27;;;;;;;5.78;1.52;;;;;;;11.59;65.17;100226.84;20984259;28;20048;-79
2022/02/24 10:54:30;;;;;;;6.80;2.08;;;;;;;11.86;63.72;100212.28;21009611;28;20060;-79
2022/02/24 11:04:32;;;;;;;4.97;1.80;;;;;;;12.13;63.30;100195.00;21011532;28;20044;-79
2022/02/24 11:14:36;;;;;;;5.40;1.85;;;;;;;12.09;61.87;100182.84;21022327;28;20048;-79
2022/02/24 11:24:39;;;;;;;6.80;2.10;;;;;;;12.10;62.14;100174.06;21017170;28;20044;-79
2022/02/24 11:35:09;;;;;;;6.53;2.28;;;;;;;12.27;62.20;100166.63;21019580;28;20048;-80
2022/02/24 11:45:23;;;;;;;6.05;2.25;;;;;;;12.65;58.79;100135.81;21033514;28;20087;-80
2022/02/24 11:55:48;;;;;;;6.43;2.10;;;;;;;12.64;58.30;100128.84;21008352;28;20049;-79
2022/02/24 12:06:06;;;;;;;4.53;2.00;;;;;;;12.56;57.45;100113.31;20985393;28;20071;-79
2022/02/24 12:16:18;;;;;;;7.45;2.08;;;;;;;12.37;59.07;100118.22;20982474;28;20104;-78
2022/02/24 12:26:40;;;;;;;4.03;1.77;;;;;;;12.44;57.18;100106.63;20987952;28;20056;-80
2022/02/24 12:36:42;;;;;;;6.03;1.83;;;;;;;12.45;56.62;100084.72;20995135;28;20045;-79
2022/02/24 12:46:43;;;;;;;7.50;2.50;;;;;;;12.01;58.50;100081.56;20968665;28;20057;-79
2022/02/24 12:56:45;;;;;;;7.88;2.35;;;;;;;11.72;60.14;100095.41;20971712;28;20378;-80
2022/02/24 13:06:46;;;;;;;7.43;2.10;;;;;;;12.02;60.27;100072.78;20998277;28;20059;-79
2022/02/24 13:16:48;;;;;;;7.90;2.10;;;;;;;12.31;59.86;100069.38;20882243;28;20045;-79
2022/02/24 13:26:49;;;;;;;7.57;2.13;;;;;;;12.17;60.34;100060.13;20996706;28;20041;-79
2022/02/24 13:37:13;;;;;;;7.38;1.85;;;;;;;12.25;60.75;100064.28;20998926;28;20677;-79
2022/02/24 13:47:20;;;;;;;6.23;1.90;;;;;;;12.20;61.83;100065.31;20978517;28;20568;-79
2022/02/24 13:57:23;;;;;;;5.90;1.70;;;;;;;11.87;61.73;100052.19;21013644;28;20341;-79
2022/02/24 14:07:31;;;;;;;4.88;1.83;;;;;;;11.77;62.04;100072.53;20993988;28;20079;-79
2022/02/24 14:17:33;;;;;;;7.43;1.80;;;;;;;11.72;63.85;100042.94;20996291;28;20049;-79
2022/02/24 14:27:36;;;;;;;5.47;1.98;;;;;;;11.56;64.98;100052.13;21054310;23;20675;-83
2022/02/24 14:37:37;;;;;;;6.95;2.45;;;;;;;11.94;63.31;100037.19;20991087;28;20044;-82
2022/02/24 14:47:40;;;;;;;8.57;2.08;;;;;;;11.99;62.81;100041.38;21024238;28;20466;-83
2022/02/24 14:57:42;;;;;;;4.68;1.70;;;;;;;11.86;63.49;100045.25;21007277;28;20390;-83
2022/02/24 15:07:47;;;;;;;4.15;1.33;;;;;;;11.64;64.30;100029.19;21018627;28;20063;-83
2022/02/24 15:17:53;;;;;;;4.47;1.80;;;;;;;11.60;63.33;100029.31;20987894;28;20098;-80
2022/02/24 15:27:54;;;;;;;3.05;1.27;;;;;;;11.74;62.07;100027.19;21001014;28;20110;-83
2022/02/24 15:37:56;;;;;;;3.65;1.27;;;;;;;11.91;62.80;100027.59;20995466;28;20048;-83
2022/02/24 15:47:58;;;;;;;4.85;1.85;;;;;;;11.88;64.04;100027.72;20996398;28;20566;-82
2022/02/24 15:57:59;;;;;;;5.57;1.90;;;;;;;11.49;65.88;100040.91;21010458;28;20110;-81
2022/02/24 16:08:01;;;;;;;6.90;3.13;;;;;;;11.45;65.77;100026.19;21026658;28;20132;-82
2022/02/24 16:18:03;;;;;;;9.05;2.83;;;;;;;11.25;67.38;100012.69;20997955;28;20045;-81
2022/02/24 16:28:05;;;;;;;5.55;1.98;;;;;;;11.13;67.31;100032.19;21004728;28;20604;-82
2022/02/24 16:38:07;;;;;;;5.95;1.98;;;;;;;10.89;68.73;100038.88;21029878;28;20044;-82
2022/02/24 16:48:08;;;;;;;4.20;1.80;;;;;;;10.59;71.53;100029.94;21011012;28;20048;-83
2022/02/24 16:58:11;;;;;;;4.10;1.80;;;;;;;10.23;73.14;100026.31;20937823;28;20069;-83
2022/02/24 17:08:15;;;;;;;6.18;1.70;;;;;;;10.01;73.10;100021.50;20963062;28;20559;-81
2022/02/24 17:18:18;;;;;;;4.35;1.70;;;;;;;9.86;72.36;100040.09;21002833;28;20456;-82
2022/02/24 17:28:19;;;;;;;4.30;1.33;;;;;;;9.72;72.96;100029.00;21008811;28;20044;-83
2022/02/24 17:38:21;;;;;;;4.20;1.98;;;;;;;9.65;72.06;100025.66;20957154;28;20049;-81
2022/02/24 17:48:24;;;;;;;5.53;1.48;;;;;;;9.64;71.02;100026.56;20946983;28;20407;-79
2022/02/24 17:58:27;;;;;;;4.07;1.70;;;;;;;9.64;70.26;100047.47;20847544;28;20493;-80
2022/02/24 18:08:29;;;;;;;4.50;2.00;;;;;;;9.77;67.96;100028.06;20957177;28;20040;-81
2022/02/24 18:18:31;;;;;;;6.90;2.72;;;;;;;9.95;66.73;100039.91;21005338;28;20048;-80
2022/02/24 18:28:33;;;;;;;5.50;1.65;;;;;;;10.08;66.92;100026.63;20993246;28;20044;-80
2022/02/24 18:38:36;;;;;;;6.03;1.60;;;;;;;10.07;67.29;100051.91;21009945;28;20088;-80
2022/02/24 18:48:38;;;;;;;3.47;1.20;;;;;;;10.11;68.51;100162.56;20954556;28;20135;-80
2022/02/24 18:58:41;;;;;;;4.63;0.70;;;;;;;7.24;100.00;100305.69;20962449;28;20144;-80
2022/02/24 19:08:43;;;;;;;1.02;0.60;;;;;;;5.73;97.87;100370.66;20982685;28;20090;-81
2022/02/24 19:18:45;;;;;;;3.58;0.38;;;;;;;5.28;96.56;100431.94;20961119;28;20098;-80
2022/02/24 19:28:47;;;;;;;1.15;0.30;;;;;;;4.85;94.22;100453.25;20971329;28;20087;-80
2022/02/24 19:38:50;;;;;;;2.28;0.30;;;;;;;4.82;95.63;100486.91;20967741;28;20461;-80
2022/02/24 19:48:52;;;;;;;2.60;0.77;;;;;;;4.88;96.57;100483.50;20994290;28;20040;-83
2022/02/24 19:58:54;;;;;;;1.10;0.32;;;;;;;4.86;95.60;100485.22;20994735;28;20482;-81
2022/02/24 20:08:56;;;;;;;4.22;0.50;;;;;;;4.93;95.01;100541.50;20993838;28;20049;-82
2022/02/24 20:18:57;;;;;;;2.15;0.50;;;;;;;5.06;93.39;100529.50;20991075;28;20051;-81
2022/02/24 20:28:59;;;;;;;3.35;1.10;;;;;;;5.13;96.43;100557.28;20995378;28;20489;-80
2022/02/24 20:39:01;;;;;;;7.78;3.45;;;;;;;5.29;95.49;100564.31;20966900;28;20513;-81
2022/02/24 20:49:03;;;;;;;7.63;3.22;;;;;;;5.21;97.16;100607.50;20979748;28;20106;-80
2022/02/24 20:59:04;;;;;;;5.70;2.33;;;;;;;5.27;97.46;100625.75;20980176;28;20078;-80
2022/02/24 21:09:09;;;;;;;9.07;3.30;;;;;;;5.13;94.79;100653.31;20988291;28;20710;-80
2022/02/24 21:19:10;;;;;;;3.33;1.03;;;;;;;5.08;97.23;100640.28;20987352;28;20124;-80
2022/02/24 21:29:12;;;;;;;4.53;1.50;;;;;;;5.04;99.74;100642.81;20951773;28;20660;-80
2022/02/24 21:39:13;;;;;;;2.85;1.10;;;;;;;4.91;99.66;100644.41;20986622;28;20044;-81
2022/02/24 21:49:15;;;;;;;3.88;1.63;;;;;;;4.92;100.00;100643.53;21007107;28;20075;-81
2022/02/24 21:59:16;;;;;;;4.10;1.70;;;;;;;4.79;99.86;100658.13;21004446;28;20481;-81
2022/02/24 22:09:18;;;;;;;3.03;1.20;;;;;;;4.47;100.00;100700.91;20985181;28;20044;-80
2022/02/24 22:19:33;;;;;;;;;;;;;;;4.47;99.92;100714.75;21005924;28;20571;-81
2022/02/24 22:29:34;;;;;;;6.10;1.70;;;;;;;4.46;99.99;100727.69;20988317;28;19974;-81
2022/02/24 22:39:35;;;;;;;5.57;1.40;;;;;;;4.23;100.00;100743.78;20980192;28;20048;-81
2022/02/24 22:49:37;;;;;;;5.85;1.95;;;;;;;4.14;99.03;100756.59;20979937;28;20110;-80
2022/02/24 22:59:39;;;;;;;3.78;1.17;;;;;;;4.18;96.74;100760.09;20980527;28;20478;-80
2022/02/24 23:09:41;;;;;;;6.50;1.45;;;;;;;4.17;96.24;100776.47;21014075;28;20102;-81
2022/02/24 23:19:42;;;;;;;5.32;1.20;;;;;;;4.01;91.74;100788.31;21023507;28;20094;-81
2022/02/24 23:29:44;;;;;;;6.68;0.80;;;;;;;4.04;90.27;100811.69;20999924;28;20102;-80
2022/02/24 23:39:45;;;;;;;5.03;1.08;;;;;;;3.84;88.95;100835.53;21005928;28;20111;-80
2022/02/24 23:49:47;;;;;;;4.60;1.15;;;;;;;3.80;88.50;100854.44;21014604;28;20429;-80
2022/02/24 23:59:49;;;;;;;5.57;1.73;;;;;;;3.69;87.76;100865.41;21015464;28;20056;-80
